createdAt,value
2024-04-23T00:02:05.998Z,69.92
2024-04-23T00:04:32.751Z,70.14
2024-04-23T00:07:00.667Z,70.16
2024-04-23T00:09:27.741Z,70.76
2024-04-23T00:11:54.338Z,69.18
2024-04-23T00:14:20.985Z,69.87
2024-04-23T00:16:57.516Z,69.42
2024-04-23T00:19:24.076Z,69.20
2024-04-23T00:21:50.647Z,70.01
2024-04-23T00:24:17.199Z,70.09
2024-04-23T00:27:00.485Z,69.91
2024-04-23T00:29:27.812Z,70.00
2024-04-23T00:31:54.785Z,70.36
2024-04-23T00:34:21.519Z,69.69
2024-04-23T00:36:54.980Z,69.61
2024-04-23T00:39:21.793Z,70.09
2024-04-23T00:41:48.467Z,70.00
2024-04-23T00:44:15.166Z,69.72
2024-04-23T00:46:41.953Z,69.18
2024-04-23T00:49:10.178Z,69.53
2024-04-23T00:51:37.251Z,70.06
2024-04-23T00:54:03.992Z,70.58
2024-04-23T00:56:30.585Z,69.59
2024-04-23T00:58:58.218Z,69.58
2024-04-23T01:01:24.841Z,70.22
2024-04-23T01:03:51.652Z,69.01
2024-04-23T01:06:18.348Z,69.94
2024-04-23T01:08:44.893Z,69.49
2024-04-23T01:11:11.733Z,70.28
2024-04-23T01:13:38.439Z,68.88
2024-04-23T01:16:05.420Z,70.11
2024-04-23T01:18:32.506Z,68.89
2024-04-23T01:21:01.908Z,69.43
2024-04-23T01:23:32.644Z,69.34
2024-04-23T01:26:09.582Z,69.18
2024-04-23T01:28:40.204Z,70.31
2024-04-23T01:31:08.326Z,68.83
2024-04-23T01:33:36.181Z,69.71
2024-04-23T01:36:04.362Z,68.88
2024-04-23T01:38:32.644Z,68.80
2024-04-23T01:40:59.957Z,68.66
2024-04-23T01:43:27.175Z,67.97
2024-04-23T01:45:54.391Z,68.55
2024-04-23T01:48:21.038Z,68.09
2024-04-23T01:50:47.628Z,69.41
2024-04-23T01:53:14.516Z,69.30
2024-04-23T01:55:41.356Z,68.35
2024-04-23T01:58:07.941Z,68.73
2024-04-23T02:00:37.625Z,69.23
2024-04-23T02:03:05.162Z,70.35
2024-04-23T02:05:31.952Z,70.35
2024-04-23T02:07:58.599Z,70.23
2024-04-23T02:10:26.786Z,70.98
2024-04-23T02:12:53.772Z,70.72
2024-04-23T02:15:20.584Z,71.55
2024-04-23T02:17:47.217Z,71.32
2024-04-23T02:20:14.097Z,71.48
2024-04-23T02:22:40.650Z,71.29
2024-04-23T02:25:07.177Z,71.14
2024-04-23T02:27:33.927Z,71.54
2024-04-23T02:30:01.110Z,70.65
2024-04-23T02:32:27.921Z,71.27
2024-04-23T02:34:54.487Z,72.23
2024-04-23T02:37:21.185Z,71.75
2024-04-23T02:39:47.737Z,71.39
2024-04-23T02:42:14.440Z,72.64
2024-04-23T02:44:41.086Z,71.91
2024-04-23T02:47:07.701Z,71.88
2024-04-23T02:49:34.295Z,72.16
2024-04-23T02:52:01.075Z,72.66
2024-04-23T02:54:27.702Z,72.94
2024-04-23T02:56:54.724Z,73.11
2024-04-23T02:59:22.083Z,73.36
2024-04-23T03:01:49.162Z,72.82
2024-04-23T03:04:16.036Z,73.16
2024-04-23T03:06:42.752Z,73.68
2024-04-23T03:09:09.430Z,73.82
2024-04-23T03:11:36.094Z,73.80
2024-04-23T03:14:02.904Z,74.86
2024-04-23T03:16:29.591Z,75.13
2024-04-23T03:18:56.133Z,74.59
2024-04-23T03:21:22.707Z,74.38
2024-04-23T03:23:49.200Z,74.61
2024-04-23T03:26:16.010Z,74.44
2024-04-23T03:28:42.567Z,73.82
2024-04-23T03:31:09.307Z,74.02
2024-04-23T03:33:35.987Z,74.84
2024-04-23T03:36:02.603Z,74.59
2024-04-23T03:38:29.135Z,74.32
2024-04-23T03:40:56.593Z,74.52
2024-04-23T03:43:23.173Z,74.81
2024-04-23T03:45:49.722Z,74.60
2024-04-23T03:48:16.362Z,74.85
2024-04-23T03:50:42.994Z,74.75
2024-04-23T03:53:09.517Z,74.30
2024-04-23T03:55:36.225Z,75.07
2024-04-23T03:58:03.566Z,74.66
2024-04-23T04:00:30.288Z,74.58
2024-04-23T04:03:15.635Z,74.68
2024-04-23T04:06:00.883Z,74.47
2024-04-23T04:08:27.615Z,74.74
2024-04-23T04:10:54.495Z,75.00
2024-04-23T04:13:23.967Z,74.58
2024-04-23T04:15:51.422Z,74.19
2024-04-23T04:18:21.297Z,73.91
2024-04-23T04:20:47.973Z,74.39
2024-04-23T04:23:14.890Z,74.24
2024-04-23T04:25:41.755Z,74.50
2024-04-23T04:28:08.507Z,74.45
2024-04-23T04:30:35.075Z,74.34
2024-04-23T04:33:01.968Z,75.50
2024-04-23T04:35:28.977Z,74.55
2024-04-23T04:37:56.531Z,75.31
2024-04-23T04:40:23.284Z,74.79
2024-04-23T04:42:50.036Z,74.96
2024-04-23T04:45:16.587Z,75.02
2024-04-23T04:47:43.508Z,74.53
2024-04-23T04:50:10.558Z,74.97
2024-04-23T04:52:37.581Z,74.12
2024-04-23T04:55:04.729Z,74.96
2024-04-23T04:57:34.099Z,73.27
2024-04-23T05:00:00.754Z,74.18
2024-04-23T05:02:27.756Z,73.57
2024-04-23T05:04:55.619Z,73.44
2024-04-23T05:07:22.672Z,73.88
2024-04-23T05:09:49.273Z,73.31
2024-04-23T05:12:18.006Z,73.51
2024-04-23T05:14:45.071Z,71.96
2024-04-23T05:17:12.201Z,73.10
2024-04-23T05:19:39.369Z,72.41
2024-04-23T05:22:06.078Z,72.74
2024-04-23T05:24:32.598Z,72.71
2024-04-23T05:26:59.418Z,72.26
2024-04-23T05:29:26.213Z,72.13
2024-04-23T05:32:11.526Z,71.85
2024-04-23T05:34:38.393Z,71.76
2024-04-23T05:37:04.972Z,71.42
2024-04-23T05:39:31.767Z,71.42
2024-04-23T05:41:58.498Z,71.35
2024-04-23T05:44:25.030Z,71.40
2024-04-23T05:46:51.991Z,71.90
2024-04-23T05:49:37.715Z,70.23
2024-04-23T05:52:29.753Z,70.45
2024-04-23T05:55:16.340Z,71.71
2024-04-23T05:57:42.880Z,71.29
2024-04-23T06:00:09.977Z,70.31
2024-04-23T06:02:36.710Z,71.06
2024-04-23T06:05:03.346Z,70.47
2024-04-23T06:07:30.241Z,70.00
2024-04-23T06:09:56.797Z,69.54
2024-04-23T06:12:23.291Z,70.28
2024-04-23T06:14:51.631Z,70.84
2024-04-23T06:17:31.382Z,70.76
2024-04-23T06:20:05.291Z,71.82
2024-04-23T06:22:32.899Z,71.24
2024-04-23T06:24:59.483Z,71.59
2024-04-23T06:27:26.356Z,73.10
2024-04-23T06:29:52.839Z,73.07
2024-04-23T06:32:20.130Z,72.99
2024-04-23T06:34:47.528Z,73.42
2024-04-23T06:37:14.799Z,73.08
2024-04-23T06:39:42.797Z,74.14
2024-04-23T06:42:09.662Z,73.53
2024-04-23T06:44:36.229Z,74.41
2024-04-23T06:47:02.996Z,75.38
2024-04-23T06:49:30.062Z,75.33
2024-04-23T06:51:57.202Z,75.99
2024-04-23T06:54:24.096Z,76.24
2024-04-23T06:56:51.081Z,75.72
2024-04-23T06:59:17.628Z,75.10
2024-04-23T07:01:45.235Z,76.15
2024-04-23T07:04:12.443Z,77.43
2024-04-23T07:06:39.333Z,76.75
2024-04-23T07:09:06.053Z,75.67
2024-04-23T07:11:32.726Z,75.99
2024-04-23T07:13:59.469Z,76.77
2024-04-23T07:16:26.315Z,77.50
2024-04-23T07:18:56.932Z,76.33
2024-04-23T07:21:28.663Z,76.81
2024-04-23T07:23:55.464Z,76.90
2024-04-23T07:26:23.637Z,76.69
2024-04-23T07:28:50.538Z,76.05
2024-04-23T07:31:17.168Z,76.35
2024-04-23T07:33:44.061Z,75.82
2024-04-23T07:36:10.936Z,76.76
2024-04-23T07:38:37.892Z,76.14
2024-04-23T07:41:04.860Z,75.42
2024-04-23T07:43:31.498Z,75.78
2024-04-23T07:45:58.163Z,75.34
2024-04-23T07:48:25.070Z,75.28
2024-04-23T07:50:52.160Z,75.44
2024-04-23T07:53:18.943Z,75.59
2024-04-23T07:55:45.790Z,75.62
2024-04-23T07:58:12.387Z,75.59
2024-04-23T08:00:38.990Z,75.34
2024-04-23T08:03:11.074Z,75.21
2024-04-23T08:05:38.483Z,76.34
2024-04-23T08:08:05.504Z,75.12
2024-04-23T08:10:32.438Z,76.04
2024-04-23T08:12:59.271Z,75.54
2024-04-23T08:15:25.845Z,75.92
2024-04-23T08:17:53.830Z,76.95
2024-04-23T08:20:21.093Z,76.84
2024-04-23T08:22:47.695Z,76.17
2024-04-23T08:25:18.098Z,76.12
2024-04-23T08:27:47.794Z,76.05
2024-04-23T08:30:14.722Z,76.93
2024-04-23T08:32:41.708Z,76.38
2024-04-23T08:35:08.365Z,76.15
2024-04-23T08:37:35.162Z,76.55
2024-04-23T08:40:01.786Z,75.85
2024-04-23T08:42:31.390Z,75.77
2024-04-23T08:44:58.261Z,75.06
2024-04-23T08:47:25.165Z,74.52
2024-04-23T08:49:52.029Z,74.97
2024-04-23T08:52:18.926Z,74.81
2024-04-23T08:54:45.504Z,74.34
2024-04-23T08:57:14.472Z,74.72
2024-04-23T08:59:41.321Z,73.79
2024-04-23T09:02:09.488Z,73.70
2024-04-23T09:04:36.965Z,71.77
2024-04-23T09:07:04.027Z,72.91
2024-04-23T09:09:30.756Z,72.34
2024-04-23T09:12:02.065Z,73.35
2024-04-23T09:14:28.636Z,72.88
2024-04-23T09:16:58.351Z,72.88
2024-04-23T09:19:25.632Z,72.53
2024-04-23T09:21:52.196Z,73.29
2024-04-23T09:24:25.202Z,72.52
2024-04-23T09:26:52.009Z,72.81
2024-04-23T09:29:18.790Z,73.06
2024-04-23T09:31:45.911Z,73.43
2024-04-23T09:34:12.683Z,72.21
2024-04-23T09:36:40.309Z,72.75
2024-04-23T09:39:15.145Z,72.06
2024-04-23T09:41:41.961Z,73.48
2024-04-23T09:44:11.729Z,72.57
2024-04-23T09:46:39.302Z,73.49
2024-04-23T09:49:06.305Z,72.56
2024-04-23T09:51:33.114Z,73.71
2024-04-23T09:54:02.989Z,74.65
2024-04-23T09:56:29.640Z,74.50
2024-04-23T09:58:56.205Z,74.94
2024-04-23T10:01:25.568Z,75.57
2024-04-23T10:03:55.491Z,75.02
2024-04-23T10:06:24.717Z,75.63
2024-04-23T10:09:07.034Z,76.48
2024-04-23T10:11:33.942Z,76.24
2024-04-23T10:14:08.800Z,76.08
2024-04-23T10:16:44.845Z,76.81
2024-04-23T10:19:12.028Z,75.86
2024-04-23T10:21:41.111Z,76.09
2024-04-23T10:24:11.457Z,76.23
2024-04-23T10:26:43.667Z,76.34
2024-04-23T10:29:11.130Z,76.78
2024-04-23T10:31:38.276Z,76.88
2024-04-23T10:34:05.353Z,76.77
2024-04-23T10:36:32.974Z,76.55
2024-04-23T10:39:00.403Z,75.92
2024-04-23T10:41:27.768Z,74.81
2024-04-23T10:43:55.011Z,74.42
2024-04-23T10:46:24.623Z,75.38
2024-04-23T10:48:57.755Z,75.28
2024-04-23T10:51:24.934Z,76.00
2024-04-23T10:53:54.610Z,77.08
2024-04-23T10:56:22.223Z,75.78
2024-04-23T10:58:48.804Z,75.53
2024-04-23T11:01:24.087Z,76.15
2024-04-23T11:03:56.034Z,74.94
2024-04-23T11:06:23.013Z,75.04
2024-04-23T11:08:52.433Z,74.96
2024-04-23T11:11:24.075Z,75.13
2024-04-23T11:13:57.534Z,76.62
2024-04-23T11:16:24.316Z,75.53
2024-04-23T11:18:54.652Z,76.59
2024-04-23T11:21:25.218Z,75.99
2024-04-23T11:23:52.078Z,75.21
2024-04-23T11:26:21.303Z,74.99
2024-04-23T11:28:48.293Z,74.69
2024-04-23T11:31:14.992Z,75.67
2024-04-23T11:33:42.132Z,74.15
2024-04-23T11:36:12.845Z,74.02
2024-04-23T11:38:43.834Z,74.46
2024-04-23T11:41:15.787Z,74.60
2024-04-23T11:43:45.440Z,74.10
2024-04-23T11:46:15.784Z,74.34
2024-04-23T11:48:42.934Z,75.36
2024-04-23T11:51:09.898Z,74.17
2024-04-23T11:53:36.398Z,74.47
2024-04-23T11:56:03.316Z,75.36
2024-04-23T11:58:29.942Z,74.45
2024-04-23T12:00:56.520Z,74.04
2024-04-23T12:03:25.128Z,73.76
2024-04-23T12:05:52.139Z,74.60
2024-04-23T12:08:18.868Z,75.20
2024-04-23T12:10:45.915Z,75.39
2024-04-23T12:13:21.632Z,74.81
2024-04-23T12:15:50.284Z,74.81
2024-04-23T12:18:18.404Z,75.47
2024-04-23T12:20:45.948Z,76.15
2024-04-23T12:23:13.228Z,75.46
2024-04-23T12:25:43.321Z,74.58
2024-04-23T12:28:12.963Z,74.05
2024-04-23T12:30:43.955Z,73.89
2024-04-23T12:33:11.615Z,74.08
2024-04-23T12:35:38.837Z,74.42
2024-04-23T12:38:07.989Z,74.33
2024-04-23T12:40:35.608Z,74.00
2024-04-23T12:43:07.957Z,74.82
2024-04-23T12:45:34.920Z,74.88
2024-04-23T12:48:02.637Z,74.31
2024-04-23T12:50:30.298Z,74.52
2024-04-23T12:52:56.993Z,74.64
2024-04-23T12:55:23.850Z,75.10
2024-04-23T12:57:50.380Z,74.39
2024-04-23T13:00:17.147Z,74.27
2024-04-23T13:02:43.713Z,74.85
2024-04-23T13:05:10.822Z,74.64
2024-04-23T13:07:37.567Z,75.11
2024-04-23T13:10:04.472Z,75.78
2024-04-23T13:12:31.330Z,75.51
2024-04-23T13:14:57.923Z,74.32
2024-04-23T13:17:24.969Z,74.53
2024-04-23T13:19:57.257Z,74.75
2024-04-23T13:22:27.672Z,73.66
2024-04-23T13:24:54.258Z,73.77
2024-04-23T13:27:21.060Z,74.16
2024-04-23T13:29:48.043Z,73.09
2024-04-23T13:32:15.182Z,73.41
2024-04-23T13:34:42.023Z,72.71
2024-04-23T13:37:08.624Z,73.58
2024-04-23T13:39:35.392Z,75.38
2024-04-23T13:42:02.433Z,73.99
2024-04-23T13:44:30.598Z,72.91
2024-04-23T13:46:57.767Z,71.92
2024-04-23T13:49:24.476Z,71.26
2024-04-23T13:51:51.366Z,71.46
2024-04-23T13:54:17.895Z,72.68
2024-04-23T13:56:44.444Z,72.42
2024-04-23T13:59:12.578Z,71.20
2024-04-23T14:01:41.590Z,71.12
2024-04-23T14:04:08.804Z,70.77
2024-04-23T14:06:35.689Z,70.44
2024-04-23T14:09:02.185Z,71.11
2024-04-23T14:11:31.271Z,71.03
2024-04-23T14:13:58.047Z,71.25
2024-04-23T14:16:25.400Z,72.91
2024-04-23T14:18:53.665Z,71.99
2024-04-23T14:21:20.994Z,70.63
2024-04-23T14:23:47.626Z,70.60
2024-04-23T14:26:15.136Z,71.93
2024-04-23T14:28:42.024Z,70.77
2024-04-23T14:31:08.869Z,69.79
2024-04-23T14:33:35.424Z,70.14
2024-04-23T14:36:05.856Z,69.46
2024-04-23T14:38:33.472Z,70.62
2024-04-23T14:41:06.855Z,69.97
2024-04-23T14:43:34.628Z,69.72
2024-04-23T14:46:08.746Z,69.00
2024-04-23T14:48:35.411Z,69.16
2024-04-23T14:51:02.000Z,69.06
2024-04-23T14:53:28.776Z,68.98
2024-04-23T14:55:59.071Z,69.38
2024-04-23T14:58:25.972Z,67.93
2024-04-23T15:00:52.694Z,67.21
2024-04-23T15:03:19.553Z,66.45
2024-04-23T15:05:46.160Z,65.70
2024-04-23T15:08:13.583Z,65.34
2024-04-23T15:10:50.909Z,64.95
2024-04-23T15:13:22.922Z,65.46
2024-04-23T15:15:58.214Z,66.93
2024-04-23T15:18:24.876Z,66.91
2024-04-23T15:20:51.516Z,67.12
2024-04-23T15:23:18.319Z,67.57
2024-04-23T15:25:45.086Z,68.48
2024-04-23T15:28:11.671Z,67.81
2024-04-23T15:30:38.363Z,68.83
2024-04-23T15:33:05.396Z,69.12
2024-04-23T15:35:32.783Z,69.18
2024-04-23T15:37:59.667Z,68.59
2024-04-23T15:40:26.435Z,68.32
2024-04-23T15:42:52.973Z,69.47
2024-04-23T15:45:20.269Z,69.42
2024-04-23T15:47:47.858Z,69.52
2024-04-23T15:50:16.515Z,68.54
2024-04-23T15:52:43.268Z,69.14
2024-04-23T15:55:10.300Z,69.44
2024-04-23T15:57:36.871Z,69.36
2024-04-23T16:00:03.776Z,68.88
2024-04-23T16:02:33.336Z,68.83
2024-04-23T16:05:00.303Z,69.15
2024-04-23T16:07:29.095Z,69.75
2024-04-23T16:09:56.140Z,69.57
2024-04-23T16:12:23.033Z,68.99
2024-04-23T16:14:51.726Z,68.56
2024-04-23T16:17:18.794Z,69.33
2024-04-23T16:19:45.486Z,69.00
2024-04-23T16:22:12.084Z,68.80
2024-04-23T16:24:39.290Z,68.15
2024-04-23T16:27:05.794Z,67.83
2024-04-23T16:29:32.682Z,68.11
2024-04-23T16:31:59.734Z,68.46
2024-04-23T16:34:26.284Z,68.15
2024-04-23T16:36:53.108Z,68.92
2024-04-23T16:39:21.539Z,69.31
2024-04-23T16:41:49.614Z,69.86
2024-04-23T16:44:16.322Z,69.20
2024-04-23T16:46:43.790Z,69.34
2024-04-23T16:49:10.350Z,69.70
2024-04-23T16:51:40.002Z,70.20
2024-04-23T16:54:08.608Z,69.85
2024-04-23T16:56:35.749Z,70.23
2024-04-23T16:59:02.512Z,70.01
2024-04-23T17:01:29.361Z,70.71
2024-04-23T17:03:55.996Z,69.51
2024-04-23T17:06:23.186Z,72.19
2024-04-23T17:08:50.431Z,72.85
2024-04-23T17:11:17.108Z,71.06
2024-04-23T17:13:44.878Z,70.75
2024-04-23T17:16:15.150Z,69.92
2024-04-23T17:18:42.250Z,70.50
2024-04-23T17:21:15.928Z,71.29
2024-04-23T17:23:46.229Z,71.75
2024-04-23T17:26:13.601Z,72.55
2024-04-23T17:28:40.736Z,72.35
2024-04-23T17:31:08.560Z,72.12
2024-04-23T17:33:36.300Z,73.81
2024-04-23T17:36:03.138Z,71.94
2024-04-23T17:38:29.801Z,72.62
2024-04-23T17:40:57.131Z,71.51
2024-04-23T17:43:24.525Z,71.67
2024-04-23T17:45:51.272Z,72.46
2024-04-23T17:48:17.984Z,71.41
2024-04-23T17:50:44.859Z,71.61
2024-04-23T17:53:11.474Z,72.48
2024-04-23T17:55:38.839Z,71.72
2024-04-23T17:58:05.643Z,73.97
2024-04-23T18:00:32.314Z,73.01
2024-04-23T18:02:59.381Z,72.82
2024-04-23T18:05:26.142Z,74.32
2024-04-23T18:07:53.006Z,72.89
2024-04-23T18:10:20.121Z,73.10
2024-04-23T18:12:47.550Z,73.40
2024-04-23T18:15:14.384Z,74.10
2024-04-23T18:17:41.262Z,74.43
2024-04-23T18:20:08.354Z,75.09
2024-04-23T18:22:36.924Z,75.38
2024-04-23T18:25:03.934Z,76.40
2024-04-23T18:27:30.620Z,76.09
2024-04-23T18:29:57.225Z,75.86
2024-04-23T18:32:24.051Z,76.64
2024-04-23T18:34:50.887Z,76.38
2024-04-23T18:37:17.493Z,76.52
2024-04-23T18:39:44.360Z,75.27
2024-04-23T18:42:11.358Z,76.03
2024-04-23T18:44:38.366Z,76.88
2024-04-23T18:47:05.174Z,77.10
2024-04-23T18:49:31.809Z,76.30
2024-04-23T18:51:58.430Z,76.19
2024-04-23T18:54:25.311Z,76.89
2024-04-23T18:56:53.768Z,76.24
2024-04-23T18:59:20.523Z,76.46
2024-04-23T19:01:47.483Z,76.98
2024-04-23T19:04:14.312Z,76.96
2024-04-23T19:06:41.730Z,77.06
2024-04-23T19:09:08.346Z,77.86
2024-04-23T19:11:35.210Z,78.51
2024-04-23T19:14:11.633Z,76.14
2024-04-23T19:16:44.377Z,75.92
2024-04-23T19:19:11.556Z,76.48
2024-04-23T19:21:38.415Z,77.18
2024-04-23T19:24:06.084Z,76.08
2024-04-23T19:26:32.642Z,77.76
2024-04-23T19:28:59.320Z,77.85
2024-04-23T19:31:26.141Z,77.86
2024-04-23T19:33:52.833Z,76.81
2024-04-23T19:36:19.627Z,77.08
2024-04-23T19:38:46.668Z,76.80
2024-04-23T19:41:14.015Z,76.64
2024-04-23T19:43:50.974Z,78.16
2024-04-23T19:46:20.099Z,77.80
2024-04-23T19:48:48.532Z,79.16
2024-04-23T19:51:16.690Z,78.61
2024-04-23T19:53:46.090Z,78.43
2024-04-23T19:56:27.312Z,77.95
2024-04-23T19:58:54.787Z,78.15
2024-04-23T20:01:21.488Z,78.45
2024-04-23T20:03:48.177Z,78.35
2024-04-23T20:06:14.847Z,77.92
2024-04-23T20:08:42.749Z,77.61
2024-04-23T20:11:12.650Z,76.98
2024-04-23T20:13:39.421Z,78.26
2024-04-23T20:16:06.156Z,79.22
2024-04-23T20:18:33.020Z,79.54
2024-04-23T20:20:59.707Z,79.39
2024-04-23T20:23:26.258Z,79.88
2024-04-23T20:25:53.058Z,80.13
2024-04-23T20:28:19.799Z,80.25
2024-04-23T20:30:46.358Z,79.51
2024-04-23T20:33:13.167Z,80.12
2024-04-23T20:35:39.754Z,80.79
2024-04-23T20:38:06.712Z,80.29
2024-04-23T20:40:34.267Z,80.30
2024-04-23T20:43:00.832Z,80.55
2024-04-23T20:45:27.630Z,80.89
2024-04-23T20:47:55.676Z,80.71
2024-04-23T20:50:22.662Z,80.78
2024-04-23T20:52:49.537Z,79.27
2024-04-23T20:55:16.297Z,78.64
2024-04-23T20:57:43.066Z,80.12
2024-04-23T21:00:09.980Z,80.29
2024-04-23T21:02:36.628Z,79.50
2024-04-23T21:05:03.392Z,79.82
2024-04-23T21:07:29.994Z,79.55
2024-04-23T21:09:57.191Z,79.70
2024-04-23T21:12:24.051Z,80.40
2024-04-23T21:14:50.744Z,79.99
2024-04-23T21:17:17.295Z,79.97
2024-04-23T21:19:46.746Z,80.11
2024-04-23T21:22:13.805Z,80.13
2024-04-23T21:24:40.577Z,80.90
2024-04-23T21:27:07.272Z,80.43
2024-04-23T21:29:33.984Z,79.78
2024-04-23T21:32:03.620Z,79.89
2024-04-23T21:34:30.241Z,79.69
2024-04-23T21:36:56.906Z,80.26
2024-04-23T21:39:23.548Z,79.66
2024-04-23T21:41:50.284Z,80.12
2024-04-23T21:44:17.121Z,81.28
2024-04-23T21:46:43.734Z,81.08
2024-04-23T21:49:10.314Z,81.10
2024-04-23T21:51:37.046Z,81.62
2024-04-23T21:54:04.135Z,81.58
2024-04-23T21:56:30.881Z,82.31
2024-04-23T21:58:57.564Z,82.15
2024-04-23T22:01:24.269Z,82.43
2024-04-23T22:03:51.828Z,83.04
2024-04-23T22:06:18.885Z,82.96
2024-04-23T22:08:45.564Z,83.26
2024-04-23T22:11:12.336Z,82.97
2024-04-23T22:13:39.021Z,82.86
2024-04-23T22:16:06.074Z,83.27
2024-04-23T22:18:32.878Z,83.37
2024-04-23T22:20:59.684Z,83.57
2024-04-23T22:23:26.241Z,83.34
2024-04-23T22:25:53.114Z,83.24
2024-04-23T22:28:19.881Z,83.44
2024-04-23T22:30:46.682Z,84.33
2024-04-23T22:33:13.295Z,83.92
2024-04-23T22:35:40.120Z,83.44
2024-04-23T22:38:06.758Z,83.95
2024-04-23T22:40:33.579Z,83.82
2024-04-23T22:43:00.217Z,84.26
2024-04-23T22:45:26.985Z,84.20
2024-04-23T22:47:53.599Z,84.44
2024-04-23T22:50:20.485Z,84.32
2024-04-23T22:52:50.163Z,84.97
2024-04-23T22:55:16.757Z,85.04
2024-04-23T22:57:43.458Z,84.66
2024-04-23T23:00:10.504Z,84.77
2024-04-23T23:02:37.104Z,84.93
2024-04-23T23:05:04.070Z,85.13
2024-04-23T23:07:30.694Z,84.89
2024-04-23T23:09:57.291Z,85.09
2024-04-23T23:12:23.954Z,85.45
2024-04-23T23:14:50.901Z,85.27
2024-04-23T23:17:20.786Z,85.14
2024-04-23T23:19:47.449Z,84.83
2024-04-23T23:22:14.112Z,84.86
2024-04-23T23:24:40.833Z,84.69
2024-04-23T23:27:07.393Z,84.98
2024-04-23T23:29:34.130Z,84.85
2024-04-23T23:32:00.865Z,85.78
2024-04-23T23:34:27.432Z,84.83
2024-04-23T23:36:53.978Z,84.72
2024-04-23T23:39:20.543Z,84.85
2024-04-23T23:41:47.214Z,84.60
2024-04-23T23:44:13.950Z,84.66
2024-04-23T23:46:40.656Z,85.30
2024-04-23T23:49:07.440Z,84.51
2024-04-23T23:51:34.035Z,84.30
2024-04-23T23:54:00.783Z,84.90
2024-04-23T23:56:27.435Z,84.96
2024-04-23T23:58:54.017Z,85.28
